Terminal Aerodrome Forecast
Issued by NWS Sterling, VA

Current Version | Previous Version | Graphics & Text | Print | Product List | Glossary On
Versions: 1 2 3 4 5 6 7 8 9 10 11 12 13 14 15 16 17 18 19 20 21 22
000
FTUS41 KLWX 270300 AAA
TAFDCA
TAF AMD
KDCA 270313Z 2703/2724 33011G20KT 3SM -SN OVC013
     FM271300 33011G19KT 5SM -SHSN OVC015
     FM271400 33011G19KT P6SM OVC015
     FM271800 32012G21KT P6SM OVC025
     FM272000 32013G22KT P6SM BKN045=

USA.gov is the U.S. government's official web portal to all federal, state and local government web resources and services.